Time,TemperatureF,DewpointF,PressureIn,WindDirection,WindDirectionDegrees,WindSpeedMPH,WindSpeedGustMPH,Humidity,HourlyPrecipIn,Conditions,Clouds,dailyrainin,SoftwareType,DateUTC
2013-02-15 16:27:00,67.6,49.9,29.89,North,0,2.7,-999.0,53,-99.99,,,0.00,Acu-Link.com,2013-02-15 22:27:00,
2013-02-15 16:42:00,67.8,49.0,29.89,NW,315,3.8,-999.0,51,-99.99,,,0.00,Acu-Link.com,2013-02-15 22:42:00,
2013-02-15 16:57:00,66.9,47.7,29.89,NNW,337,4.3,-999.0,50,-99.99,,,0.00,Acu-Link.com,2013-02-15 22:57:00,
2013-02-15 17:12:00,65.3,47.7,29.90,NNW,337,3.8,-999.0,53,-99.99,,,0.00,Acu-Link.com,2013-02-15 23:12:00,
2013-02-15 17:28:00,63.9,47.9,29.90,NNW,337,4.7,-999.0,56,-99.99,,,0.00,Acu-Link.com,2013-02-15 23:28:00,
2013-02-15 17:43:00,62.2,46.8,29.90,NNW,337,4.3,-999.0,57,-99.99,,,0.00,Acu-Link.com,2013-02-15 23:43:00,
2013-02-15 17:58:00,60.6,46.7,29.90,NNW,337,2.7,-999.0,60,-99.99,,,0.00,Acu-Link.com,2013-02-15 23:58:00,
2013-02-15 18:13:00,59.5,46.5,29.90,NNW,337,1.6,-999.0,62,-99.99,,,0.00,Acu-Link.com,2013-02-16 00:13:00,
2013-02-15 18:29:00,58.6,46.9,29.91,NNE,22,2.7,-999.0,65,-99.99,,,0.00,Acu-Link.com,2013-02-16 00:29:00,
2013-02-15 18:44:00,58.1,48.0,29.92,NNE,22,2.7,-999.0,69,-99.99,,,0.00,Acu-Link.com,2013-02-16 00:44:00,
2013-02-15 18:59:00,57.2,47.9,29.93,North,0,3.1,-999.0,71,-99.99,,,0.00,Acu-Link.com,2013-02-16 00:59:00,
2013-02-15 19:15:00,57.2,47.9,29.93,NNE,22,7.4,-999.0,71,-99.99,,,0.00,Acu-Link.com,2013-02-16 01:15:00,
2013-02-15 19:30:00,56.5,47.6,29.94,NNW,337,5.8,-999.0,72,-99.99,,,0.00,Acu-Link.com,2013-02-16 01:30:00,
2013-02-15 19:45:00,55.9,47.8,29.95,NNW,337,4.3,-999.0,74,-99.99,,,0.00,Acu-Link.com,2013-02-16 01:45:00,
2013-02-15 20:00:00,55.4,48.0,29.95,NW,315,3.8,-999.0,76,-99.99,,,0.00,Acu-Link.com,2013-02-16 02:00:00,
2013-02-15 20:16:00,54.7,48.6,29.96,North,0,3.1,-999.0,80,-99.99,,,0.00,Acu-Link.com,2013-02-16 02:16:00,
2013-02-15 20:31:00,54.1,48.4,29.96,NNW,337,7.4,-999.0,81,-99.99,,,0.00,Acu-Link.com,2013-02-16 02:31:00,
2013-02-15 20:46:00,54.0,49.2,29.97,ENE,67,4.3,-999.0,84,-99.99,,,0.00,Acu-Link.com,2013-02-16 02:46:00,
2013-02-15 21:02:00,53.6,49.8,29.97,NNE,22,5.1,-999.0,87,-99.99,,,0.00,Acu-Link.com,2013-02-16 03:02:00,
2013-02-15 21:17:00,53.2,51.8,29.98,NNE,22,4.3,-999.0,95,-99.99,,,0.00,Acu-Link.com,2013-02-16 03:17:00,
2013-02-15 21:32:00,52.7,52.2,29.99,NNE,22,4.3,-999.0,98,-99.99,,,0.00,Acu-Link.com,2013-02-16 03:32:00,
2013-02-15 21:47:00,54.0,53.4,29.99,North,0,6.7,-999.0,98,-99.99,,,0.00,Acu-Link.com,2013-02-16 03:47:00,
2013-02-15 22:03:00,52.2,51.6,29.99,North,0,7.4,-999.0,98,-99.99,,,0.00,Acu-Link.com,2013-02-16 04:03:00,
2013-02-15 22:18:00,52.0,51.4,30.00,North,0,6.3,-999.0,98,-99.99,,,0.00,Acu-Link.com,2013-02-16 04:18:00,
2013-02-15 22:33:00,51.4,50.9,30.00,North,0,4.3,-999.0,98,-99.99,,,0.00,Acu-Link.com,2013-02-16 04:33:00,
2013-02-15 22:49:00,51.4,50.9,30.00,NNW,337,3.8,-999.0,98,-99.99,,,0.00,Acu-Link.com,2013-02-16 04:49:00,
2013-02-15 23:04:00,50.9,50.4,30.00,North,0,5.1,-999.0,98,-99.99,,,0.00,Acu-Link.com,2013-02-16 05:04:00,
2013-02-15 23:19:00,50.7,50.2,30.01,East,90,4.7,-999.0,98,-99.99,,,0.00,Acu-Link.com,2013-02-16 05:19:00,
2013-02-15 23:35:00,50.4,49.8,30.00,West,270,4.7,-999.0,98,-99.99,,,0.00,Acu-Link.com,2013-02-16 05:35:00,
2013-02-15 23:50:00,50.2,49.6,30.00,North,0,2.2,-999.0,98,-99.99,,,0.00,Acu-Link.com,2013-02-16 05:50:00,